createdAt,value
2023-01-10T00:01:19.596Z,2.72
2023-01-10T00:03:46.316Z,2.55
2023-01-10T00:06:13.093Z,2.80
2023-01-10T00:08:39.902Z,3.47
2023-01-10T00:11:27.938Z,3.10
2023-01-10T00:13:58.148Z,2.83
2023-01-10T00:16:25.024Z,2.60
2023-01-10T00:18:51.776Z,2.35
2023-01-10T00:21:21.161Z,2.30
2023-01-10T00:23:49.129Z,2.30
2023-01-10T00:26:16.047Z,2.10
2023-01-10T00:28:45.280Z,2.03
2023-01-10T00:31:13.770Z,2.10
2023-01-10T00:33:40.568Z,2.53
2023-01-10T00:36:08.433Z,2.22
2023-01-10T00:38:35.950Z,1.60
2023-01-10T00:41:24.148Z,2.10
2023-01-10T00:44:00.164Z,1.55
2023-01-10T00:46:27.634Z,1.67
2023-01-10T00:48:54.988Z,1.17
2023-01-10T00:51:21.844Z,1.50
2023-01-10T00:53:49.008Z,1.58
2023-01-10T00:56:16.829Z,2.00
2023-01-10T00:58:44.898Z,1.50
2023-01-10T01:01:11.747Z,1.17
2023-01-10T01:03:38.645Z,1.13
2023-01-10T01:06:06.993Z,1.30
2023-01-10T01:08:34.521Z,1.30
2023-01-10T01:11:01.395Z,0.90
2023-01-10T01:13:28.214Z,1.30
2023-01-10T01:15:58.750Z,1.00
2023-01-10T01:18:27.480Z,0.88
2023-01-10T01:20:56.915Z,0.70
2023-01-10T01:23:24.976Z,1.10
2023-01-10T01:25:53.076Z,1.30
2023-01-10T01:28:20.554Z,1.77
2023-01-10T01:30:47.627Z,1.20
2023-01-10T01:33:16.233Z,1.10
2023-01-10T01:35:44.376Z,1.00
2023-01-10T01:38:11.811Z,1.10
2023-01-10T01:40:39.272Z,1.38
2023-01-10T01:43:18.788Z,0.77
2023-01-10T01:45:47.189Z,1.13
2023-01-10T01:48:20.902Z,1.15
2023-01-10T01:51:13.835Z,1.00
2023-01-10T01:53:49.625Z,1.10
2023-01-10T01:56:19.497Z,1.15
2023-01-10T01:58:56.501Z,0.90
2023-01-10T02:01:24.279Z,0.88
2023-01-10T02:03:56.437Z,0.90
2023-01-10T02:06:25.203Z,0.90
2023-01-10T02:09:20.721Z,0.90
2023-01-10T02:11:47.953Z,1.00
2023-01-10T02:14:15.365Z,0.77
2023-01-10T02:16:42.254Z,0.93
2023-01-10T02:19:29.325Z,1.00
2023-01-10T02:22:13.285Z,0.95
2023-01-10T02:25:34.610Z,1.40
2023-01-10T02:28:13.272Z,0.85
2023-01-10T02:30:57.863Z,0.90
2023-01-10T02:33:57.839Z,1.20
2023-01-10T02:36:30.588Z,0.95
2023-01-10T02:39:08.502Z,0.80
2023-01-10T02:41:59.691Z,0.60
2023-01-10T02:44:45.412Z,1.13
2023-01-10T02:47:14.371Z,0.88
2023-01-10T02:49:43.125Z,1.00
2023-01-10T02:52:11.070Z,1.00
2023-01-10T02:54:38.304Z,0.90
2023-01-10T02:57:27.461Z,1.10
2023-01-10T03:00:03.237Z,1.20
2023-01-10T03:02:48.123Z,1.10
2023-01-10T03:05:27.229Z,1.30
2023-01-10T03:08:07.985Z,1.02
2023-01-10T03:10:45.179Z,1.02
2023-01-10T03:13:47.622Z,1.30
2023-01-10T03:16:25.440Z,1.20
2023-01-10T03:18:58.352Z,0.68
2023-01-10T03:21:28.467Z,1.30
2023-01-10T03:24:01.059Z,1.30
2023-01-10T03:26:36.465Z,1.30
2023-01-10T03:29:08.214Z,0.90
2023-01-10T03:31:48.131Z,1.00
2023-01-10T03:34:15.061Z,1.08
2023-01-10T03:37:05.159Z,0.85
2023-01-10T03:39:43.373Z,0.90
2023-01-10T03:42:30.010Z,1.90
2023-01-10T03:45:09.737Z,1.42
2023-01-10T03:47:45.647Z,1.48
2023-01-10T03:50:21.301Z,1.83
2023-01-10T03:52:48.271Z,1.52
2023-01-10T03:55:20.818Z,1.40
2023-01-10T03:57:49.004Z,1.48
2023-01-10T04:00:16.783Z,1.55
2023-01-10T04:02:44.726Z,1.80
2023-01-10T04:05:12.426Z,1.40
2023-01-10T04:07:39.622Z,1.67
2023-01-10T04:10:07.622Z,1.65
2023-01-10T04:12:34.614Z,1.55
2023-01-10T04:15:01.588Z,1.38
2023-01-10T04:17:28.683Z,1.50
2023-01-10T04:19:55.521Z,1.45
2023-01-10T04:22:22.438Z,1.70
2023-01-10T04:24:51.494Z,1.40
2023-01-10T04:27:19.047Z,2.67
2023-01-10T04:29:46.110Z,1.95
2023-01-10T04:32:13.282Z,2.40
2023-01-10T04:34:40.029Z,2.60
2023-01-10T04:37:06.899Z,2.10
2023-01-10T04:39:33.738Z,2.28
2023-01-10T04:42:00.612Z,2.10
2023-01-10T04:44:27.427Z,2.08
2023-01-10T04:46:54.447Z,2.10
2023-01-10T04:49:21.211Z,1.73
2023-01-10T04:51:48.089Z,1.90
2023-01-10T04:54:14.910Z,1.73
2023-01-10T04:56:41.741Z,1.52
2023-01-10T04:59:10.200Z,1.33
2023-01-10T05:01:39.334Z,1.80
2023-01-10T05:04:07.166Z,1.13
2023-01-10T05:06:34.425Z,1.40
2023-01-10T05:09:01.593Z,1.23
2023-01-10T05:11:28.544Z,1.50
2023-01-10T05:13:55.264Z,1.23
2023-01-10T05:16:22.333Z,0.90
2023-01-10T05:18:49.145Z,1.20
2023-01-10T05:21:15.943Z,0.95
2023-01-10T05:23:43.353Z,1.48
2023-01-10T05:26:18.587Z,1.10
2023-01-10T05:28:45.708Z,1.20
2023-01-10T05:31:15.074Z,0.82
2023-01-10T05:33:48.412Z,1.30
2023-01-10T05:36:16.156Z,1.00
2023-01-10T05:38:43.217Z,1.10
2023-01-10T05:41:10.059Z,0.82
2023-01-10T05:43:37.106Z,1.00
2023-01-10T05:46:04.113Z,0.98
2023-01-10T05:48:30.925Z,1.05
2023-01-10T05:50:57.883Z,0.95
2023-01-10T05:53:24.775Z,0.80
2023-01-10T05:56:00.785Z,0.75
2023-01-10T05:58:28.446Z,0.85
2023-01-10T06:00:56.525Z,0.65
2023-01-10T06:03:23.657Z,0.80
2023-01-10T06:05:50.423Z,0.70
2023-01-10T06:08:17.428Z,1.05
2023-01-10T06:10:44.264Z,0.82
2023-01-10T06:13:12.328Z,0.88
2023-01-10T06:15:39.617Z,0.85
2023-01-10T06:18:06.855Z,1.00
2023-01-10T06:20:33.641Z,0.80
2023-01-10T06:23:04.625Z,0.80
2023-01-10T06:25:33.679Z,0.82
2023-01-10T06:28:00.461Z,1.60
2023-01-10T06:30:27.305Z,1.75
2023-01-10T06:32:54.198Z,1.58
2023-01-10T06:35:20.970Z,1.30
2023-01-10T06:37:47.690Z,1.00
2023-01-10T06:40:14.464Z,1.45
2023-01-10T06:42:41.750Z,1.52
2023-01-10T06:45:09.624Z,1.42
2023-01-10T06:47:36.447Z,2.10
2023-01-10T06:50:04.811Z,2.67
2023-01-10T06:52:31.609Z,2.33
2023-01-10T06:54:58.653Z,1.95
2023-01-10T06:57:25.381Z,2.63
2023-01-10T06:59:52.335Z,2.60
2023-01-10T07:02:19.101Z,1.73
2023-01-10T07:04:45.956Z,2.13
2023-01-10T07:07:12.748Z,1.65
2023-01-10T07:09:39.507Z,1.98
2023-01-10T07:12:06.733Z,1.45
2023-01-10T07:14:33.779Z,1.33
2023-01-10T07:17:00.590Z,1.63
2023-01-10T07:19:27.365Z,1.63
2023-01-10T07:21:54.107Z,1.40
2023-01-10T07:24:21.010Z,2.00
2023-01-10T07:26:47.755Z,1.73
2023-01-10T07:29:14.608Z,4.05
2023-01-10T07:31:41.436Z,3.30
2023-01-10T07:34:08.322Z,1.60
2023-01-10T07:36:39.292Z,2.30
2023-01-10T07:41:32.919Z,2.40
2023-01-10T07:43:59.780Z,2.50
2023-01-10T07:46:26.623Z,2.28
2023-01-10T07:48:53.434Z,4.05
2023-01-10T07:51:20.354Z,5.47
2023-01-10T07:53:47.364Z,2.55
2023-01-10T07:56:14.186Z,2.63
2023-01-10T07:58:41.028Z,2.40
2023-01-10T08:01:10.848Z,2.88
2023-01-10T08:03:40.648Z,2.53
2023-01-10T08:06:12.900Z,1.70
2023-01-10T08:08:40.580Z,1.65
2023-01-10T08:11:08.019Z,1.75
2023-01-10T08:13:34.864Z,1.15
2023-01-10T08:16:06.456Z,1.08
2023-01-10T08:18:33.679Z,2.58
2023-01-10T08:21:01.052Z,2.00
2023-01-10T08:23:28.143Z,5.18
2023-01-10T08:25:55.252Z,2.00
2023-01-10T08:28:22.166Z,3.65
2023-01-10T08:30:50.608Z,1.90
2023-01-10T08:33:17.528Z,2.10
2023-01-10T08:35:44.284Z,2.80
2023-01-10T08:38:11.995Z,2.28
2023-01-10T08:40:39.101Z,2.40
2023-01-10T08:43:08.545Z,1.75
2023-01-10T08:45:37.404Z,1.30
2023-01-10T08:48:05.735Z,1.52
2023-01-10T08:50:33.142Z,2.60
2023-01-10T08:53:00.576Z,2.05
2023-01-10T08:55:28.785Z,2.00
2023-01-10T08:57:55.600Z,1.20
2023-01-10T09:00:23.038Z,2.22
2023-01-10T09:02:49.969Z,1.83
2023-01-10T09:05:32.256Z,3.33
2023-01-10T09:08:01.041Z,2.78
2023-01-10T09:10:28.878Z,2.00
2023-01-10T09:12:57.288Z,3.53
2023-01-10T09:15:30.088Z,2.50
2023-01-10T09:17:59.442Z,3.53
2023-01-10T09:20:27.670Z,3.35
2023-01-10T09:22:57.636Z,3.05
2023-01-10T09:25:25.233Z,3.65
2023-01-10T09:28:03.111Z,4.18
2023-01-10T09:30:31.169Z,3.58
2023-01-10T09:32:59.413Z,5.50
2023-01-10T09:35:28.258Z,3.50
2023-01-10T09:38:03.191Z,3.30
2023-01-10T09:40:41.277Z,2.58
2023-01-10T09:43:22.553Z,2.65
2023-01-10T09:46:18.400Z,2.83
2023-01-10T09:49:11.071Z,2.58
2023-01-10T09:51:45.169Z,4.80
2023-01-10T09:54:17.254Z,4.03
2023-01-10T09:56:47.741Z,3.33
2023-01-10T09:59:22.321Z,3.90
2023-01-10T10:01:52.891Z,4.53
2023-01-10T10:04:30.337Z,6.28
2023-01-10T10:06:57.204Z,7.50
2023-01-10T10:09:29.008Z,8.25
2023-01-10T10:12:31.804Z,7.68
2023-01-10T10:15:20.175Z,4.35
2023-01-10T10:18:02.736Z,2.65
2023-01-10T10:20:52.034Z,3.60
2023-01-10T10:23:21.924Z,1.83
2023-01-10T10:26:00.911Z,1.58
2023-01-10T10:28:56.969Z,1.70
2023-01-10T10:31:45.585Z,1.20
2023-01-10T10:34:38.762Z,1.05
2023-01-10T10:37:11.503Z,0.80
2023-01-10T10:39:52.548Z,0.70
2023-01-10T10:42:20.029Z,1.30
2023-01-10T10:44:59.824Z,2.13
2023-01-10T10:47:32.433Z,1.60
2023-01-10T10:50:11.430Z,1.48
2023-01-10T10:52:38.512Z,1.00
2023-01-10T10:55:07.093Z,1.10
2023-01-10T10:57:38.772Z,0.90
2023-01-10T11:00:14.686Z,1.63
2023-01-10T11:02:55.729Z,1.75
2023-01-10T11:05:34.899Z,0.68
2023-01-10T11:08:10.369Z,1.05
2023-01-10T11:10:38.556Z,1.15
2023-01-10T11:13:34.326Z,1.30
2023-01-10T11:18:30.814Z,1.17
2023-01-10T11:21:05.238Z,0.90
2023-01-10T11:23:41.031Z,0.50
2023-01-10T11:26:24.505Z,0.98
2023-01-10T11:28:54.128Z,1.10
2023-01-10T11:31:29.055Z,0.55
2023-01-10T11:33:57.426Z,0.95
2023-01-10T11:36:24.181Z,0.70
2023-01-10T11:39:14.632Z,0.70
2023-01-10T11:41:41.524Z,1.00
2023-01-10T11:44:17.524Z,1.20
2023-01-10T11:46:46.519Z,1.35
2023-01-10T11:49:20.491Z,1.27
2023-01-10T11:51:51.196Z,0.75
2023-01-10T11:54:23.954Z,1.20
2023-01-10T11:57:08.673Z,1.02
2023-01-10T11:59:35.699Z,0.70
2023-01-10T12:02:12.311Z,1.10
2023-01-10T12:04:47.632Z,1.27
2023-01-10T12:07:14.526Z,1.10
2023-01-10T12:09:43.107Z,0.70
2023-01-10T12:12:23.397Z,0.68
2023-01-10T12:14:51.314Z,1.02
2023-01-10T12:17:21.542Z,1.15
2023-01-10T12:19:50.776Z,1.02
2023-01-10T12:22:23.375Z,1.00
2023-01-10T12:24:52.533Z,0.77
2023-01-10T12:27:21.876Z,0.70
2023-01-10T12:30:16.383Z,1.35
2023-01-10T12:32:49.590Z,0.65
2023-01-10T12:35:22.337Z,0.82
2023-01-10T12:38:03.087Z,1.13
2023-01-10T12:40:58.901Z,0.80
2023-01-10T12:44:02.538Z,1.42
2023-01-10T12:47:07.317Z,1.50
2023-01-10T12:49:44.809Z,0.90
2023-01-10T12:52:23.380Z,1.10
2023-01-10T12:54:50.366Z,1.50
2023-01-10T12:57:26.151Z,1.92
2023-01-10T12:59:55.093Z,1.27
2023-01-10T13:02:26.903Z,1.40
2023-01-10T13:04:58.759Z,0.80
2023-01-10T13:07:33.956Z,0.93
2023-01-10T13:10:06.285Z,0.90
2023-01-10T13:12:40.824Z,0.65
2023-01-10T13:15:19.895Z,1.40
2023-01-10T13:17:51.221Z,1.10
2023-01-10T13:20:25.888Z,0.93
2023-01-10T13:22:59.153Z,1.30
2023-01-10T13:25:27.954Z,1.00
2023-01-10T13:28:18.290Z,0.80
2023-01-10T13:30:52.857Z,1.38
2023-01-10T13:33:32.444Z,1.30
2023-01-10T13:36:12.118Z,0.88
2023-01-10T13:38:50.093Z,1.15
2023-01-10T13:41:36.908Z,1.40
2023-01-10T13:44:10.662Z,2.17
2023-01-10T13:46:50.969Z,2.25
2023-01-10T13:49:46.142Z,1.60
2023-01-10T13:52:39.355Z,1.42
2023-01-10T13:55:26.462Z,2.22
2023-01-10T13:57:58.908Z,1.10
2023-01-10T14:01:01.440Z,1.50
2023-01-10T14:03:40.192Z,1.75
2023-01-10T14:06:41.080Z,1.80
2023-01-10T14:09:13.741Z,1.33
2023-01-10T14:11:43.575Z,1.30
2023-01-10T14:14:34.350Z,1.23
2023-01-10T14:17:31.156Z,1.23
2023-01-10T14:23:08.647Z,1.05
2023-01-10T14:25:38.332Z,1.23
2023-01-10T14:28:22.218Z,1.17
2023-01-10T14:31:08.079Z,1.35
2023-01-10T14:33:37.239Z,0.88
2023-01-10T14:36:13.203Z,1.00
2023-01-10T14:38:40.883Z,1.27
2023-01-10T14:41:22.988Z,1.27
2023-01-10T14:44:13.874Z,1.83
2023-01-10T14:46:52.045Z,2.42
2023-01-10T14:49:29.668Z,3.30
2023-01-10T14:52:19.466Z,2.60
2023-01-10T14:55:03.165Z,1.58
2023-01-10T14:57:30.035Z,1.27
2023-01-10T15:00:19.075Z,1.40
2023-01-10T15:02:46.800Z,1.73
2023-01-10T15:05:19.978Z,1.90
2023-01-10T15:07:46.939Z,3.15
2023-01-10T15:10:30.562Z,3.38
2023-01-10T15:13:02.388Z,2.47
2023-01-10T15:15:38.193Z,2.00
2023-01-10T15:18:22.111Z,2.35
2023-01-10T15:20:49.514Z,3.03
2023-01-10T15:23:19.314Z,2.25
2023-01-10T15:25:54.519Z,2.90
2023-01-10T15:28:21.343Z,2.78
2023-01-10T15:30:48.265Z,2.08
2023-01-10T15:33:19.620Z,1.40
2023-01-10T15:35:46.531Z,1.38
2023-01-10T15:38:16.392Z,2.20
2023-01-10T15:40:44.058Z,1.85
2023-01-10T15:43:25.046Z,2.40
2023-01-10T15:45:53.353Z,3.53
2023-01-10T15:48:41.679Z,5.97
2023-01-10T15:51:14.280Z,8.77
2023-01-10T15:54:04.825Z,14.25
2023-01-10T15:56:48.363Z,27.98
2023-01-10T15:59:28.521Z,35.38
2023-01-10T16:02:14.014Z,36.95
2023-01-10T16:04:41.915Z,29.90
2023-01-10T16:07:16.627Z,29.90
2023-01-10T16:10:08.493Z,17.98
2023-01-10T16:12:59.178Z,14.80
2023-01-10T16:15:28.346Z,12.55
2023-01-10T16:17:55.169Z,11.60
2023-01-10T16:20:29.125Z,13.98
2023-01-10T16:22:56.792Z,26.80
2023-01-10T16:25:32.301Z,12.77
2023-01-10T16:28:00.158Z,11.48
2023-01-10T16:30:32.945Z,11.75
2023-01-10T16:33:08.950Z,14.65
2023-01-10T16:35:35.950Z,14.57
2023-01-10T16:38:03.836Z,11.60
2023-01-10T16:40:37.509Z,11.45
2023-01-10T16:43:19.940Z,14.75
2023-01-10T16:46:01.491Z,11.77
2023-01-10T16:48:30.737Z,15.35
2023-01-10T16:51:17.130Z,12.43
2023-01-10T16:53:45.369Z,15.23
2023-01-10T16:56:17.786Z,23.10
2023-01-10T16:58:44.676Z,20.15
2023-01-10T17:01:18.330Z,16.45
2023-01-10T17:03:45.822Z,15.07
2023-01-10T17:06:13.616Z,11.75
2023-01-10T17:08:41.352Z,13.85
2023-01-10T17:11:15.286Z,12.60
2023-01-10T17:13:45.281Z,15.77
2023-01-10T17:16:12.587Z,12.85
2023-01-10T17:18:39.681Z,20.60
2023-01-10T17:21:06.882Z,21.55
2023-01-10T17:23:33.702Z,16.00
2023-01-10T17:26:05.833Z,18.45
2023-01-10T17:28:32.849Z,14.13
2023-01-10T17:31:00.444Z,13.38
2023-01-10T17:33:27.955Z,13.02
2023-01-10T17:35:56.644Z,23.88
2023-01-10T17:38:25.999Z,18.90
2023-01-10T17:40:54.685Z,17.30
2023-01-10T17:43:21.695Z,20.33
2023-01-10T17:45:51.811Z,17.75
2023-01-10T17:48:19.366Z,18.05
2023-01-10T17:50:48.012Z,15.90
2023-01-10T17:53:17.763Z,37.58
2023-01-10T17:55:48.711Z,29.15
2023-01-10T17:58:16.587Z,25.98
2023-01-10T18:00:44.364Z,26.20
2023-01-10T18:03:11.716Z,21.80
2023-01-10T18:05:40.097Z,21.77
2023-01-10T18:08:08.524Z,19.85
2023-01-10T18:10:35.307Z,21.52
2023-01-10T18:13:03.612Z,20.90
2023-01-10T18:15:30.569Z,24.08
2023-01-10T18:17:58.160Z,20.55
2023-01-10T18:20:24.960Z,22.85
2023-01-10T18:23:10.659Z,24.30
2023-01-10T18:25:37.714Z,20.30
2023-01-10T18:28:04.528Z,21.90
2023-01-10T18:30:31.924Z,26.30
2023-01-10T18:32:58.874Z,21.10
2023-01-10T18:35:26.906Z,20.33
2023-01-10T18:37:55.357Z,20.50
2023-01-10T18:40:22.358Z,20.02
2023-01-10T18:42:53.575Z,15.13
2023-01-10T18:45:22.616Z,13.27
2023-01-10T18:47:57.486Z,12.13
2023-01-10T18:50:27.796Z,19.45
2023-01-10T18:52:54.694Z,19.60
2023-01-10T18:55:21.442Z,20.00
2023-01-10T18:57:49.380Z,22.00
2023-01-10T19:00:16.547Z,22.65
2023-01-10T19:02:43.532Z,30.83
2023-01-10T19:05:10.410Z,17.45
2023-01-10T19:07:37.929Z,19.35
2023-01-10T19:10:05.181Z,22.30
2023-01-10T19:12:32.231Z,17.88
2023-01-10T19:15:00.454Z,18.05
2023-01-10T19:17:29.360Z,30.33
2023-01-10T19:19:56.362Z,21.75
2023-01-10T19:22:23.674Z,20.35
2023-01-10T19:24:50.691Z,22.85
2023-01-10T19:27:18.637Z,20.67
2023-01-10T19:29:48.739Z,18.15
2023-01-10T19:32:16.555Z,20.17
2023-01-10T19:34:45.513Z,14.68
2023-01-10T19:37:13.450Z,17.30
2023-01-10T19:39:40.313Z,17.33
2023-01-10T19:42:08.363Z,17.98
2023-01-10T19:44:35.209Z,25.20
2023-01-10T19:47:02.236Z,26.45
2023-01-10T19:49:35.980Z,22.35
2023-01-10T19:52:03.681Z,30.45
2023-01-10T19:54:33.639Z,24.80
2023-01-10T19:57:01.294Z,25.98
2023-01-10T19:59:28.869Z,24.17
2023-01-10T20:01:55.853Z,21.00
2023-01-10T20:04:23.078Z,20.52
2023-01-10T20:06:50.421Z,20.42
2023-01-10T20:09:17.571Z,18.20
2023-01-10T20:11:46.324Z,17.85
2023-01-10T20:14:14.943Z,18.38
2023-01-10T20:16:44.805Z,19.20
2023-01-10T20:19:12.596Z,17.80
2023-01-10T20:21:41.089Z,13.13
2023-01-10T20:24:13.793Z,14.32
2023-01-10T20:26:41.141Z,16.08
2023-01-10T20:29:08.481Z,12.80
2023-01-10T20:31:36.214Z,10.07
2023-01-10T20:34:03.014Z,11.30
2023-01-10T20:36:30.533Z,13.50
2023-01-10T20:38:57.796Z,15.05
2023-01-10T20:41:30.090Z,13.35
2023-01-10T20:43:58.208Z,16.38
2023-01-10T20:46:28.136Z,21.20
2023-01-10T20:48:56.948Z,15.77
2023-01-10T20:51:29.580Z,21.48
2023-01-10T20:53:56.707Z,18.15
2023-01-10T20:56:25.927Z,19.00
2023-01-10T20:58:53.830Z,18.38
2023-01-10T21:01:33.640Z,18.85
2023-01-10T21:04:03.746Z,14.70
2023-01-10T21:06:30.987Z,17.08
2023-01-10T21:09:00.639Z,14.85
2023-01-10T21:11:28.350Z,14.85
2023-01-10T21:13:55.292Z,14.45
2023-01-10T21:16:22.838Z,13.32
2023-01-10T21:18:50.796Z,13.32
2023-01-10T21:21:22.620Z,12.43
2023-01-10T21:23:50.093Z,13.00
2023-01-10T21:26:17.474Z,11.68
2023-01-10T21:28:49.159Z,13.82
2023-01-10T21:31:18.857Z,13.13
2023-01-10T21:33:46.044Z,15.32
2023-01-10T21:36:13.941Z,15.32
2023-01-10T21:38:41.551Z,15.02
2023-01-10T21:41:12.510Z,14.70
2023-01-10T21:43:44.527Z,11.60
2023-01-10T21:46:12.298Z,10.20
2023-01-10T21:48:39.169Z,5.57
2023-01-10T21:51:06.100Z,7.18
2023-01-10T21:53:33.095Z,9.60
2023-01-10T21:56:00.291Z,13.10
2023-01-10T21:58:27.513Z,13.15
2023-01-10T22:00:57.325Z,17.38
2023-01-10T22:03:24.441Z,17.92
2023-01-10T22:05:51.524Z,17.63
2023-01-10T22:08:18.339Z,13.93
2023-01-10T22:10:45.681Z,12.05
2023-01-10T22:13:12.493Z,12.23
2023-01-10T22:15:41.293Z,14.52
2023-01-10T22:18:08.877Z,18.98
2023-01-10T22:20:36.098Z,20.10
2023-01-10T22:23:03.203Z,16.40
2023-01-10T22:25:42.778Z,14.23
2023-01-10T22:28:11.807Z,14.50
2023-01-10T22:30:38.799Z,13.40
2023-01-10T22:33:05.952Z,9.65
2023-01-10T22:35:34.021Z,9.45
2023-01-10T22:38:01.358Z,9.13
2023-01-10T22:40:28.573Z,9.95
2023-01-10T22:42:55.423Z,12.63
2023-01-10T22:45:22.495Z,12.52
2023-01-10T22:47:49.818Z,12.73
2023-01-10T22:50:18.446Z,21.90
2023-01-10T22:52:48.334Z,13.75
2023-01-10T22:55:15.879Z,5.68
2023-01-10T22:57:47.272Z,5.22
2023-01-10T23:00:14.888Z,3.75
2023-01-10T23:02:41.716Z,4.57
2023-01-10T23:05:08.787Z,5.03
2023-01-10T23:07:35.637Z,6.15
2023-01-10T23:10:04.319Z,6.78
2023-01-10T23:12:31.268Z,9.52
2023-01-10T23:14:58.384Z,11.70
2023-01-10T23:17:25.230Z,11.63
2023-01-10T23:19:51.991Z,9.43
2023-01-10T23:22:18.868Z,10.80
2023-01-10T23:24:45.713Z,11.75
2023-01-10T23:27:12.650Z,11.88
2023-01-10T23:29:39.465Z,12.05
2023-01-10T23:32:06.546Z,10.35
2023-01-10T23:34:33.480Z,9.00
2023-01-10T23:37:00.309Z,7.47
2023-01-10T23:39:27.031Z,6.80
2023-01-10T23:41:54.242Z,7.15
2023-01-10T23:44:21.155Z,6.68
2023-01-10T23:46:48.082Z,6.40
2023-01-10T23:49:14.916Z,10.07
2023-01-10T23:51:41.696Z,3.75
2023-01-10T23:54:08.407Z,3.08
2023-01-10T23:56:35.544Z,3.38
2023-01-10T23:59:02.528Z,2.97
